sensor_id;sensor_type;location;lat;lon;timestamp;temperature;humidity
65824;SHT31;52585;47.566;19.056;2022-11-15T00:00:54;9.83;72.04
65824;SHT31;52585;47.566;19.056;2022-11-15T00:03:21;9.80;72.01
65824;SHT31;52585;47.566;19.056;2022-11-15T00:05:52;9.79;71.96
65824;SHT31;52585;47.566;19.056;2022-11-15T00:08:18;9.78;71.96
65824;SHT31;52585;47.566;19.056;2022-11-15T00:10:57;9.77;71.97
65824;SHT31;52585;47.566;19.056;2022-11-15T00:13:25;9.75;71.92
65824;SHT31;52585;47.566;19.056;2022-11-15T00:15:51;9.72;71.86
65824;SHT31;52585;47.566;19.056;2022-11-15T00:18:17;9.71;71.97
65824;SHT31;52585;47.566;19.056;2022-11-15T00:20:44;9.71;71.97
65824;SHT31;52585;47.566;19.056;2022-11-15T00:23:10;9.70;71.95
65824;SHT31;52585;47.566;19.056;2022-11-15T00:25:36;9.69;72.00
65824;SHT31;52585;47.566;19.056;2022-11-15T00:28:02;9.69;72.01
65824;SHT31;52585;47.566;19.056;2022-11-15T00:30:28;9.69;72.03
65824;SHT31;52585;47.566;19.056;2022-11-15T00:32:54;9.69;71.95
65824;SHT31;52585;47.566;19.056;2022-11-15T00:35:20;9.68;71.82
65824;SHT31;52585;47.566;19.056;2022-11-15T00:37:47;9.66;71.75
65824;SHT31;52585;47.566;19.056;2022-11-15T00:40:13;9.65;71.63
65824;SHT31;52585;47.566;19.056;2022-11-15T00:42:40;9.65;71.55
65824;SHT31;52585;47.566;19.056;2022-11-15T00:45:07;9.63;71.47
65824;SHT31;52585;47.566;19.056;2022-11-15T00:47:34;9.63;71.46
65824;SHT31;52585;47.566;19.056;2022-11-15T00:49:59;9.61;71.42
65824;SHT31;52585;47.566;19.056;2022-11-15T00:52:25;9.60;71.35
65824;SHT31;52585;47.566;19.056;2022-11-15T00:54:50;9.58;71.36
65824;SHT31;52585;47.566;19.056;2022-11-15T00:57:16;9.57;71.25
65824;SHT31;52585;47.566;19.056;2022-11-15T00:59:42;9.56;71.14
65824;SHT31;52585;47.566;19.056;2022-11-15T01:02:07;9.54;71.10
65824;SHT31;52585;47.566;19.056;2022-11-15T01:04:33;9.53;71.07
65824;SHT31;52585;47.566;19.056;2022-11-15T01:06:58;9.51;71.10
65824;SHT31;52585;47.566;19.056;2022-11-15T01:09:24;9.50;71.05
65824;SHT31;52585;47.566;19.056;2022-11-15T01:11:49;9.48;70.99
65824;SHT31;52585;47.566;19.056;2022-11-15T01:14:14;9.46;70.93
65824;SHT31;52585;47.566;19.056;2022-11-15T01:16:40;9.44;70.96
65824;SHT31;52585;47.566;19.056;2022-11-15T01:19:05;9.44;70.94
65824;SHT31;52585;47.566;19.056;2022-11-15T01:21:31;9.42;70.78
65824;SHT31;52585;47.566;19.056;2022-11-15T01:23:56;9.40;70.73
65824;SHT31;52585;47.566;19.056;2022-11-15T01:26:23;9.39;70.72
65824;SHT31;52585;47.566;19.056;2022-11-15T01:28:50;9.38;70.82
65824;SHT31;52585;47.566;19.056;2022-11-15T01:31:19;9.37;70.78
65824;SHT31;52585;47.566;19.056;2022-11-15T01:33:47;9.36;70.74
65824;SHT31;52585;47.566;19.056;2022-11-15T01:36:14;9.36;70.84
65824;SHT31;52585;47.566;19.056;2022-11-15T01:38:52;9.36;70.82
65824;SHT31;52585;47.566;19.056;2022-11-15T01:41:19;9.36;70.85
65824;SHT31;52585;47.566;19.056;2022-11-15T01:43:55;9.36;70.75
65824;SHT31;52585;47.566;19.056;2022-11-15T01:46:42;9.35;70.79
65824;SHT31;52585;47.566;19.056;2022-11-15T01:49:14;9.42;71.25
65824;SHT31;52585;47.566;19.056;2022-11-15T01:51:45;9.44;70.78
65824;SHT31;52585;47.566;19.056;2022-11-15T01:54:12;9.44;70.72
65824;SHT31;52585;47.566;19.056;2022-11-15T01:56:45;9.45;70.82
65824;SHT31;52585;47.566;19.056;2022-11-15T01:59:18;9.43;70.84
65824;SHT31;52585;47.566;19.056;2022-11-15T02:01:44;9.43;70.92
65824;SHT31;52585;47.566;19.056;2022-11-15T02:04:17;9.42;70.90
65824;SHT31;52585;47.566;19.056;2022-11-15T02:06:50;9.42;70.83
65824;SHT31;52585;47.566;19.056;2022-11-15T02:09:16;9.41;70.95
65824;SHT31;52585;47.566;19.056;2022-11-15T02:11:42;9.39;70.98
65824;SHT31;52585;47.566;19.056;2022-11-15T02:14:10;9.39;70.99
65824;SHT31;52585;47.566;19.056;2022-11-15T02:19:44;9.37;71.02
65824;SHT31;52585;47.566;19.056;2022-11-15T02:25:41;9.35;71.02
65824;SHT31;52585;47.566;19.056;2022-11-15T02:42:24;9.35;71.47
65824;SHT31;52585;47.566;19.056;2022-11-15T02:45:21;9.36;71.57
65824;SHT31;52585;47.566;19.056;2022-11-15T02:47:58;9.35;71.63
65824;SHT31;52585;47.566;19.056;2022-11-15T02:50:28;9.36;71.80
65824;SHT31;52585;47.566;19.056;2022-11-15T02:52:57;9.38;71.91
65824;SHT31;52585;47.566;19.056;2022-11-15T03:04:16;9.40;72.00
65824;SHT31;52585;47.566;19.056;2022-11-15T03:07:07;9.41;71.99
65824;SHT31;52585;47.566;19.056;2022-11-15T03:12:30;9.42;72.00
65824;SHT31;52585;47.566;19.056;2022-11-15T03:15:20;9.42;71.94
65824;SHT31;52585;47.566;19.056;2022-11-15T03:17:56;9.43;71.92
65824;SHT31;52585;47.566;19.056;2022-11-15T03:20:43;9.42;71.87
65824;SHT31;52585;47.566;19.056;2022-11-15T03:23:11;9.43;71.90
65824;SHT31;52585;47.566;19.056;2022-11-15T03:25:40;9.44;71.90
65824;SHT31;52585;47.566;19.056;2022-11-15T03:28:12;9.44;71.90
65824;SHT31;52585;47.566;19.056;2022-11-15T03:30:45;9.44;71.85
65824;SHT31;52585;47.566;19.056;2022-11-15T03:33:15;9.44;71.83
65824;SHT31;52585;47.566;19.056;2022-11-15T03:35:44;9.44;71.84
65824;SHT31;52585;47.566;19.056;2022-11-15T03:46:25;9.44;71.87
65824;SHT31;52585;47.566;19.056;2022-11-15T03:49:15;9.43;71.86
65824;SHT31;52585;47.566;19.056;2022-11-15T03:51:51;9.43;71.95
65824;SHT31;52585;47.566;19.056;2022-11-15T03:54:16;9.43;72.06
65824;SHT31;52585;47.566;19.056;2022-11-15T03:56:42;9.43;72.09
65824;SHT31;52585;47.566;19.056;2022-11-15T03:59:07;9.44;72.18
65824;SHT31;52585;47.566;19.056;2022-11-15T04:01:33;9.44;72.21
65824;SHT31;52585;47.566;19.056;2022-11-15T04:03:58;9.44;72.32
65824;SHT31;52585;47.566;19.056;2022-11-15T04:06:24;9.45;72.46
65824;SHT31;52585;47.566;19.056;2022-11-15T04:08:49;9.47;72.43
65824;SHT31;52585;47.566;19.056;2022-11-15T04:11:15;9.47;72.48
65824;SHT31;52585;47.566;19.056;2022-11-15T04:13:40;9.48;72.59
65824;SHT31;52585;47.566;19.056;2022-11-15T04:16:06;9.50;72.63
65824;SHT31;52585;47.566;19.056;2022-11-15T04:18:31;9.50;72.64
65824;SHT31;52585;47.566;19.056;2022-11-15T04:20:57;9.52;72.66
65824;SHT31;52585;47.566;19.056;2022-11-15T04:23:41;9.53;72.67
65824;SHT31;52585;47.566;19.056;2022-11-15T04:26:25;9.54;72.65
65824;SHT31;52585;47.566;19.056;2022-11-15T04:28:51;9.55;72.64
65824;SHT31;52585;47.566;19.056;2022-11-15T04:31:35;9.56;72.63
65824;SHT31;52585;47.566;19.056;2022-11-15T04:34:00;9.56;72.70
65824;SHT31;52585;47.566;19.056;2022-11-15T04:36:26;9.56;72.74
65824;SHT31;52585;47.566;19.056;2022-11-15T04:39:10;9.58;72.78
65824;SHT31;52585;47.566;19.056;2022-11-15T04:41:35;9.57;72.77
65824;SHT31;52585;47.566;19.056;2022-11-15T04:44:01;9.57;72.77
65824;SHT31;52585;47.566;19.056;2022-11-15T04:46:27;9.57;72.81
65824;SHT31;52585;47.566;19.056;2022-11-15T04:48:53;9.59;72.78
65824;SHT31;52585;47.566;19.056;2022-11-15T04:51:20;9.59;72.77
65824;SHT31;52585;47.566;19.056;2022-11-15T04:53:46;9.60;72.69
65824;SHT31;52585;47.566;19.056;2022-11-15T04:56:12;9.60;72.63
65824;SHT31;52585;47.566;19.056;2022-11-15T04:58:37;9.57;72.60
65824;SHT31;52585;47.566;19.056;2022-11-15T05:01:10;9.58;72.68
65824;SHT31;52585;47.566;19.056;2022-11-15T05:03:39;9.59;72.74
65824;SHT31;52585;47.566;19.056;2022-11-15T05:06:25;9.59;72.71
65824;SHT31;52585;47.566;19.056;2022-11-15T05:08:51;9.59;72.80
65824;SHT31;52585;47.566;19.056;2022-11-15T05:11:17;9.60;72.82
65824;SHT31;52585;47.566;19.056;2022-11-15T05:13:42;9.59;72.87
65824;SHT31;52585;47.566;19.056;2022-11-15T05:16:08;9.58;72.87
65824;SHT31;52585;47.566;19.056;2022-11-15T05:18:34;9.60;72.89
65824;SHT31;52585;47.566;19.056;2022-11-15T05:21:07;9.60;72.95
65824;SHT31;52585;47.566;19.056;2022-11-15T05:23:36;9.60;73.03
65824;SHT31;52585;47.566;19.056;2022-11-15T05:26:02;9.60;73.01
65824;SHT31;52585;47.566;19.056;2022-11-15T05:28:30;9.60;73.12
65824;SHT31;52585;47.566;19.056;2022-11-15T05:31:15;9.62;73.16
65824;SHT31;52585;47.566;19.056;2022-11-15T05:33:41;9.62;73.15
65824;SHT31;52585;47.566;19.056;2022-11-15T05:38:56;9.64;73.28
65824;SHT31;52585;47.566;19.056;2022-11-15T05:41:25;9.65;73.33
65824;SHT31;52585;47.566;19.056;2022-11-15T05:43:59;9.65;73.19
65824;SHT31;52585;47.566;19.056;2022-11-15T05:46:28;9.64;73.20
65824;SHT31;52585;47.566;19.056;2022-11-15T05:48:55;9.65;73.24
65824;SHT31;52585;47.566;19.056;2022-11-15T05:51:21;9.65;73.19
65824;SHT31;52585;47.566;19.056;2022-11-15T05:53:48;9.64;73.18
65824;SHT31;52585;47.566;19.056;2022-11-15T05:56:15;9.64;73.17
65824;SHT31;52585;47.566;19.056;2022-11-15T05:58:41;9.65;73.26
65824;SHT31;52585;47.566;19.056;2022-11-15T06:01:08;9.65;73.28
65824;SHT31;52585;47.566;19.056;2022-11-15T06:03:34;9.65;73.28
65824;SHT31;52585;47.566;19.056;2022-11-15T06:06:00;9.65;73.33
65824;SHT31;52585;47.566;19.056;2022-11-15T06:08:26;9.65;73.41
65824;SHT31;52585;47.566;19.056;2022-11-15T06:10:52;9.66;73.42
65824;SHT31;52585;47.566;19.056;2022-11-15T06:13:17;9.66;73.52
65824;SHT31;52585;47.566;19.056;2022-11-15T06:15:43;9.67;73.60
65824;SHT31;52585;47.566;19.056;2022-11-15T06:18:09;9.68;73.62
65824;SHT31;52585;47.566;19.056;2022-11-15T06:20:35;9.70;73.62
65824;SHT31;52585;47.566;19.056;2022-11-15T06:23:01;9.70;73.60
65824;SHT31;52585;47.566;19.056;2022-11-15T06:25:29;9.71;73.69
65824;SHT31;52585;47.566;19.056;2022-11-15T06:27:56;9.73;73.67
65824;SHT31;52585;47.566;19.056;2022-11-15T06:30:24;9.72;73.68
65824;SHT31;52585;47.566;19.056;2022-11-15T06:32:51;9.73;73.71
65824;SHT31;52585;47.566;19.056;2022-11-15T06:35:24;9.74;73.72
65824;SHT31;52585;47.566;19.056;2022-11-15T06:37:49;9.74;73.79
65824;SHT31;52585;47.566;19.056;2022-11-15T06:40:15;9.75;73.82
65824;SHT31;52585;47.566;19.056;2022-11-15T06:42:40;9.77;73.94
65824;SHT31;52585;47.566;19.056;2022-11-15T06:45:06;9.77;73.95
65824;SHT31;52585;47.566;19.056;2022-11-15T06:47:32;9.77;74.00
65824;SHT31;52585;47.566;19.056;2022-11-15T06:49:58;9.79;74.11
65824;SHT31;52585;47.566;19.056;2022-11-15T06:52:23;9.80;74.06
65824;SHT31;52585;47.566;19.056;2022-11-15T06:54:49;9.80;74.11
65824;SHT31;52585;47.566;19.056;2022-11-15T06:57:14;9.80;74.11
65824;SHT31;52585;47.566;19.056;2022-11-15T06:59:40;9.82;74.10
65824;SHT31;52585;47.566;19.056;2022-11-15T07:02:05;9.83;74.01
65824;SHT31;52585;47.566;19.056;2022-11-15T07:04:31;9.84;74.11
65824;SHT31;52585;47.566;19.056;2022-11-15T07:06:56;9.85;74.07
65824;SHT31;52585;47.566;19.056;2022-11-15T07:09:22;9.86;74.06
65824;SHT31;52585;47.566;19.056;2022-11-15T07:11:47;9.87;74.07
65824;SHT31;52585;47.566;19.056;2022-11-15T07:14:12;9.88;74.00
65824;SHT31;52585;47.566;19.056;2022-11-15T07:16:38;9.89;74.03
65824;SHT31;52585;47.566;19.056;2022-11-15T07:19:04;9.89;74.06
65824;SHT31;52585;47.566;19.056;2022-11-15T07:21:29;9.90;74.13
65824;SHT31;52585;47.566;19.056;2022-11-15T07:23:55;9.90;74.19
65824;SHT31;52585;47.566;19.056;2022-11-15T07:26:21;9.91;74.30
65824;SHT31;52585;47.566;19.056;2022-11-15T07:28:46;9.93;74.34
65824;SHT31;52585;47.566;19.056;2022-11-15T07:31:12;9.93;74.30
65824;SHT31;52585;47.566;19.056;2022-11-15T07:33:37;9.93;74.30
65824;SHT31;52585;47.566;19.056;2022-11-15T07:36:04;9.94;74.34
65824;SHT31;52585;47.566;19.056;2022-11-15T07:38:32;9.94;74.44
65824;SHT31;52585;47.566;19.056;2022-11-15T07:41:00;9.96;74.51
65824;SHT31;52585;47.566;19.056;2022-11-15T07:43:29;9.98;74.47
65824;SHT31;52585;47.566;19.056;2022-11-15T07:45:57;9.99;74.45
65824;SHT31;52585;47.566;19.056;2022-11-15T07:48:23;10.01;74.48
65824;SHT31;52585;47.566;19.056;2022-11-15T07:50:49;10.01;74.49
65824;SHT31;52585;47.566;19.056;2022-11-15T07:53:14;10.02;74.45
65824;SHT31;52585;47.566;19.056;2022-11-15T07:55:40;10.03;74.52
65824;SHT31;52585;47.566;19.056;2022-11-15T07:58:07;10.05;74.54
65824;SHT31;52585;47.566;19.056;2022-11-15T08:00:36;10.05;74.46
65824;SHT31;52585;47.566;19.056;2022-11-15T08:03:10;10.06;74.47
65824;SHT31;52585;47.566;19.056;2022-11-15T08:05:39;10.06;74.54
65824;SHT31;52585;47.566;19.056;2022-11-15T08:08:07;10.07;74.47
65824;SHT31;52585;47.566;19.056;2022-11-15T08:10:34;10.09;74.60
65824;SHT31;52585;47.566;19.056;2022-11-15T08:13:02;10.10;74.61
65824;SHT31;52585;47.566;19.056;2022-11-15T08:15:31;10.10;74.58
65824;SHT31;52585;47.566;19.056;2022-11-15T08:18:04;10.11;74.63
65824;SHT31;52585;47.566;19.056;2022-11-15T08:20:33;10.12;74.69
65824;SHT31;52585;47.566;19.056;2022-11-15T08:23:01;10.13;74.58
65824;SHT31;52585;47.566;19.056;2022-11-15T08:25:30;10.15;74.70
65824;SHT31;52585;47.566;19.056;2022-11-15T08:27:58;10.16;74.62
65824;SHT31;52585;47.566;19.056;2022-11-15T08:30:29;10.17;74.66
65824;SHT31;52585;47.566;19.056;2022-11-15T08:32:56;10.18;74.60
65824;SHT31;52585;47.566;19.056;2022-11-15T08:35:24;10.20;74.66
65824;SHT31;52585;47.566;19.056;2022-11-15T08:37:50;10.20;74.66
65824;SHT31;52585;47.566;19.056;2022-11-15T08:40:18;10.22;74.64
65824;SHT31;52585;47.566;19.056;2022-11-15T08:42:47;10.21;74.62
65824;SHT31;52585;47.566;19.056;2022-11-15T08:45:13;10.22;74.72
65824;SHT31;52585;47.566;19.056;2022-11-15T08:47:39;10.23;74.92
65824;SHT31;52585;47.566;19.056;2022-11-15T08:50:05;10.24;74.98
65824;SHT31;52585;47.566;19.056;2022-11-15T08:52:32;10.24;75.04
65824;SHT31;52585;47.566;19.056;2022-11-15T08:54:58;10.25;75.10
65824;SHT31;52585;47.566;19.056;2022-11-15T08:57:24;10.26;75.22
65824;SHT31;52585;47.566;19.056;2022-11-15T08:59:50;10.27;75.33
65824;SHT31;52585;47.566;19.056;2022-11-15T09:02:15;10.29;75.29
65824;SHT31;52585;47.566;19.056;2022-11-15T09:04:42;10.30;75.31
65824;SHT31;52585;47.566;19.056;2022-11-15T09:07:10;10.30;75.48
65824;SHT31;52585;47.566;19.056;2022-11-15T09:09:36;10.32;75.41
65824;SHT31;52585;47.566;19.056;2022-11-15T09:12:03;10.33;75.34
65824;SHT31;52585;47.566;19.056;2022-11-15T09:14:31;10.34;75.29
65824;SHT31;52585;47.566;19.056;2022-11-15T09:16:57;10.35;75.39
65824;SHT31;52585;47.566;19.056;2022-11-15T09:19:23;10.37;75.32
65824;SHT31;52585;47.566;19.056;2022-11-15T09:21:49;10.41;75.32
65824;SHT31;52585;47.566;19.056;2022-11-15T09:24:14;10.44;75.38
65824;SHT31;52585;47.566;19.056;2022-11-15T09:26:40;10.47;75.50
65824;SHT31;52585;47.566;19.056;2022-11-15T09:29:06;10.47;75.44
65824;SHT31;52585;47.566;19.056;2022-11-15T09:31:31;10.48;75.66
65824;SHT31;52585;47.566;19.056;2022-11-15T09:33:57;10.50;75.59
65824;SHT31;52585;47.566;19.056;2022-11-15T09:36:23;10.51;75.57
65824;SHT31;52585;47.566;19.056;2022-11-15T09:38:49;10.52;75.59
65824;SHT31;52585;47.566;19.056;2022-11-15T09:41:20;10.53;75.74
65824;SHT31;52585;47.566;19.056;2022-11-15T09:49:58;10.56;75.87
65824;SHT31;52585;47.566;19.056;2022-11-15T09:52:27;10.57;75.83
65824;SHT31;52585;47.566;19.056;2022-11-15T09:54:53;10.57;75.86
65824;SHT31;52585;47.566;19.056;2022-11-15T09:57:30;10.59;75.88
65824;SHT31;52585;47.566;19.056;2022-11-15T10:00:12;10.59;75.86
65824;SHT31;52585;47.566;19.056;2022-11-15T10:02:47;10.60;75.82
65824;SHT31;52585;47.566;19.056;2022-11-15T10:05:40;10.60;75.67
65824;SHT31;52585;47.566;19.056;2022-11-15T10:10:43;10.62;75.66
65824;SHT31;52585;47.566;19.056;2022-11-15T10:13:13;10.63;75.69
65824;SHT31;52585;47.566;19.056;2022-11-15T10:15:48;10.64;75.70
65824;SHT31;52585;47.566;19.056;2022-11-15T10:21:00;10.64;75.54
65824;SHT31;52585;47.566;19.056;2022-11-15T10:23:39;10.64;75.62
65824;SHT31;52585;47.566;19.056;2022-11-15T10:26:06;10.64;75.49
65824;SHT31;52585;47.566;19.056;2022-11-15T10:28:38;10.65;75.55
65824;SHT31;52585;47.566;19.056;2022-11-15T10:31:10;10.66;75.49
65824;SHT31;52585;47.566;19.056;2022-11-15T10:33:49;10.67;75.52
65824;SHT31;52585;47.566;19.056;2022-11-15T10:36:16;10.67;75.53
65824;SHT31;52585;47.566;19.056;2022-11-15T10:41:19;10.68;75.61
65824;SHT31;52585;47.566;19.056;2022-11-15T10:54:33;10.70;75.54
65824;SHT31;52585;47.566;19.056;2022-11-15T10:57:07;10.69;75.67
65824;SHT31;52585;47.566;19.056;2022-11-15T10:59:47;10.71;75.70
65824;SHT31;52585;47.566;19.056;2022-11-15T11:05:05;10.73;75.72
65824;SHT31;52585;47.566;19.056;2022-11-15T11:11:07;10.75;75.68
65824;SHT31;52585;47.566;19.056;2022-11-15T11:13:39;10.76;75.79
65824;SHT31;52585;47.566;19.056;2022-11-15T11:31:29;10.84;76.14
65824;SHT31;52585;47.566;19.056;2022-11-15T11:40:18;10.85;76.12
65824;SHT31;52585;47.566;19.056;2022-11-15T11:43:20;10.86;76.07
65824;SHT31;52585;47.566;19.056;2022-11-15T11:49:55;10.87;75.98
65824;SHT31;52585;47.566;19.056;2022-11-15T11:55:15;10.90;75.96
65824;SHT31;52585;47.566;19.056;2022-11-15T12:00:35;10.88;75.91
65824;SHT31;52585;47.566;19.056;2022-11-15T12:05:51;10.90;75.97
65824;SHT31;52585;47.566;19.056;2022-11-15T12:08:33;10.90;75.97
65824;SHT31;52585;47.566;19.056;2022-11-15T12:14:27;10.90;75.88
65824;SHT31;52585;47.566;19.056;2022-11-15T12:17:22;10.92;76.00
65824;SHT31;52585;47.566;19.056;2022-11-15T12:19:51;10.92;76.00
65824;SHT31;52585;47.566;19.056;2022-11-15T12:22:24;10.91;75.98
65824;SHT31;52585;47.566;19.056;2022-11-15T12:24:58;10.92;75.99
65824;SHT31;52585;47.566;19.056;2022-11-15T12:28:08;10.92;76.07
65824;SHT31;52585;47.566;19.056;2022-11-15T12:33:47;10.93;76.09
65824;SHT31;52585;47.566;19.056;2022-11-15T12:38:53;10.95;76.14
65824;SHT31;52585;47.566;19.056;2022-11-15T12:41:34;10.95;76.15
65824;SHT31;52585;47.566;19.056;2022-11-15T12:44:02;10.96;76.06
65824;SHT31;52585;47.566;19.056;2022-11-15T12:49:10;10.97;76.21
65824;SHT31;52585;47.566;19.056;2022-11-15T12:57:50;10.97;76.10
65824;SHT31;52585;47.566;19.056;2022-11-15T12:59:51;10.98;76.18
65824;SHT31;52585;47.566;19.056;2022-11-15T13:02:31;10.98;76.23
65824;SHT31;52585;47.566;19.056;2022-11-15T13:15:31;11.00;76.32
65824;SHT31;52585;47.566;19.056;2022-11-15T13:18:40;11.01;76.32
65824;SHT31;52585;47.566;19.056;2022-11-15T13:21:19;11.00;76.21
65824;SHT31;52585;47.566;19.056;2022-11-15T13:24:15;11.01;76.18
65824;SHT31;52585;47.566;19.056;2022-11-15T13:26:42;11.01;76.08
65824;SHT31;52585;47.566;19.056;2022-11-15T13:29:14;11.01;76.00
65824;SHT31;52585;47.566;19.056;2022-11-15T13:31:43;11.00;76.06
65824;SHT31;52585;47.566;19.056;2022-11-15T13:36:58;11.01;76.11
65824;SHT31;52585;47.566;19.056;2022-11-15T13:41:56;11.02;76.29
65824;SHT31;52585;47.566;19.056;2022-11-15T13:44:33;11.02;76.25
65824;SHT31;52585;47.566;19.056;2022-11-15T13:49:38;11.03;76.16
65824;SHT31;52585;47.566;19.056;2022-11-15T13:52:05;11.03;76.08
65824;SHT31;52585;47.566;19.056;2022-11-15T13:54:53;11.03;76.10
65824;SHT31;52585;47.566;19.056;2022-11-15T14:02:52;11.04;75.97
65824;SHT31;52585;47.566;19.056;2022-11-15T14:05:22;11.04;75.96
65824;SHT31;52585;47.566;19.056;2022-11-15T14:10:32;11.04;75.95
65824;SHT31;52585;47.566;19.056;2022-11-15T14:13:03;11.04;75.88
65824;SHT31;52585;47.566;19.056;2022-11-15T14:15:36;11.04;75.80
65824;SHT31;52585;47.566;19.056;2022-11-15T14:18:05;11.04;75.84
65824;SHT31;52585;47.566;19.056;2022-11-15T14:23:01;11.04;75.78
65824;SHT31;52585;47.566;19.056;2022-11-15T14:25:31;11.04;75.77
65824;SHT31;52585;47.566;19.056;2022-11-15T14:28:08;11.04;75.72
65824;SHT31;52585;47.566;19.056;2022-11-15T14:30:39;11.03;75.63
65824;SHT31;52585;47.566;19.056;2022-11-15T14:33:40;11.01;75.55
65824;SHT31;52585;47.566;19.056;2022-11-15T14:36:21;11.01;75.54
65824;SHT31;52585;47.566;19.056;2022-11-15T14:38:47;11.02;75.45
65824;SHT31;52585;47.566;19.056;2022-11-15T14:41:25;11.01;75.41
65824;SHT31;52585;47.566;19.056;2022-11-15T14:43:57;10.99;75.40
65824;SHT31;52585;47.566;19.056;2022-11-15T14:46:23;11.00;75.41
65824;SHT31;52585;47.566;19.056;2022-11-15T14:48:48;10.99;75.41
65824;SHT31;52585;47.566;19.056;2022-11-15T14:51:15;10.99;75.38
65824;SHT31;52585;47.566;19.056;2022-11-15T14:53:43;10.99;75.40
65824;SHT31;52585;47.566;19.056;2022-11-15T14:56:11;10.98;75.38
65824;SHT31;52585;47.566;19.056;2022-11-15T14:58:37;10.98;75.32
65824;SHT31;52585;47.566;19.056;2022-11-15T15:01:14;10.98;75.23
65824;SHT31;52585;47.566;19.056;2022-11-15T15:03:45;10.97;75.21
65824;SHT31;52585;47.566;19.056;2022-11-15T15:06:11;10.97;75.32
65824;SHT31;52585;47.566;19.056;2022-11-15T15:08:39;10.96;75.31
65824;SHT31;52585;47.566;19.056;2022-11-15T15:11:13;10.96;75.36
65824;SHT31;52585;47.566;19.056;2022-11-15T15:13:53;10.97;75.43
65824;SHT31;52585;47.566;19.056;2022-11-15T15:16:21;10.96;75.50
65824;SHT31;52585;47.566;19.056;2022-11-15T15:18:48;10.96;75.46
65824;SHT31;52585;47.566;19.056;2022-11-15T15:21:18;10.96;75.39
65824;SHT31;52585;47.566;19.056;2022-11-15T15:23:47;10.96;75.35
65824;SHT31;52585;47.566;19.056;2022-11-15T15:26:12;10.96;75.34
65824;SHT31;52585;47.566;19.056;2022-11-15T15:28:38;10.94;75.39
65824;SHT31;52585;47.566;19.056;2022-11-15T15:31:04;10.95;75.42
65824;SHT31;52585;47.566;19.056;2022-11-15T15:33:31;10.95;75.49
65824;SHT31;52585;47.566;19.056;2022-11-15T15:35:57;10.95;75.57
65824;SHT31;52585;47.566;19.056;2022-11-15T15:38:24;10.96;75.57
65824;SHT31;52585;47.566;19.056;2022-11-15T15:40:50;10.94;75.52
65824;SHT31;52585;47.566;19.056;2022-11-15T15:43:15;10.94;75.56
65824;SHT31;52585;47.566;19.056;2022-11-15T15:45:41;10.93;75.57
65824;SHT31;52585;47.566;19.056;2022-11-15T15:48:11;10.94;75.50
65824;SHT31;52585;47.566;19.056;2022-11-15T15:50:39;10.93;75.51
65824;SHT31;52585;47.566;19.056;2022-11-15T15:53:07;10.93;75.56
65824;SHT31;52585;47.566;19.056;2022-11-15T15:55:37;10.94;75.50
65824;SHT31;52585;47.566;19.056;2022-11-15T15:58:04;10.94;75.39
65824;SHT31;52585;47.566;19.056;2022-11-15T16:00:30;10.92;75.38
65824;SHT31;52585;47.566;19.056;2022-11-15T16:02:58;10.93;75.43
65824;SHT31;52585;47.566;19.056;2022-11-15T16:05:23;10.93;75.42
65824;SHT31;52585;47.566;19.056;2022-11-15T16:07:49;10.92;75.48
65824;SHT31;52585;47.566;19.056;2022-11-15T16:12:49;10.93;75.38
65824;SHT31;52585;47.566;19.056;2022-11-15T16:15:17;10.93;75.30
65824;SHT31;52585;47.566;19.056;2022-11-15T16:17:45;10.92;75.30
65824;SHT31;52585;47.566;19.056;2022-11-15T16:22:58;10.92;75.27
65824;SHT31;52585;47.566;19.056;2022-11-15T16:25:26;10.92;75.30
65824;SHT31;52585;47.566;19.056;2022-11-15T16:27:51;10.92;75.28
65824;SHT31;52585;47.566;19.056;2022-11-15T16:30:18;10.92;75.24
65824;SHT31;52585;47.566;19.056;2022-11-15T16:32:46;10.91;75.30
65824;SHT31;52585;47.566;19.056;2022-11-15T16:35:12;10.90;75.22
65824;SHT31;52585;47.566;19.056;2022-11-15T16:37:40;10.91;75.20
65824;SHT31;52585;47.566;19.056;2022-11-15T16:40:31;10.91;75.21
65824;SHT31;52585;47.566;19.056;2022-11-15T16:42:57;10.90;75.29
65824;SHT31;52585;47.566;19.056;2022-11-15T16:45:24;10.90;75.30
65824;SHT31;52585;47.566;19.056;2022-11-15T16:47:53;10.91;75.30
65824;SHT31;52585;47.566;19.056;2022-11-15T16:53:03;10.90;75.33
65824;SHT31;52585;47.566;19.056;2022-11-15T16:55:29;10.90;75.38
65824;SHT31;52585;47.566;19.056;2022-11-15T16:57:55;10.91;75.45
65824;SHT31;52585;47.566;19.056;2022-11-15T17:00:25;10.90;75.38
65824;SHT31;52585;47.566;19.056;2022-11-15T17:02:51;10.90;75.34
65824;SHT31;52585;47.566;19.056;2022-11-15T17:05:19;10.90;75.33
65824;SHT31;52585;47.566;19.056;2022-11-15T17:07:48;10.90;75.35
65824;SHT31;52585;47.566;19.056;2022-11-15T17:10:19;10.90;75.39
65824;SHT31;52585;47.566;19.056;2022-11-15T17:12:47;10.89;75.39
65824;SHT31;52585;47.566;19.056;2022-11-15T17:15:14;10.88;75.38
65824;SHT31;52585;47.566;19.056;2022-11-15T17:17:40;10.89;75.32
65824;SHT31;52585;47.566;19.056;2022-11-15T17:20:08;10.89;75.38
65824;SHT31;52585;47.566;19.056;2022-11-15T17:22:40;10.89;75.37
65824;SHT31;52585;47.566;19.056;2022-11-15T17:25:06;10.89;75.38
65824;SHT31;52585;47.566;19.056;2022-11-15T17:27:32;10.89;75.46
65824;SHT31;52585;47.566;19.056;2022-11-15T17:29:58;10.89;75.48
65824;SHT31;52585;47.566;19.056;2022-11-15T17:32:24;10.89;75.47
65824;SHT31;52585;47.566;19.056;2022-11-15T17:34:49;10.88;75.50
65824;SHT31;52585;47.566;19.056;2022-11-15T17:37:15;10.87;75.50
65824;SHT31;52585;47.566;19.056;2022-11-15T17:39:40;10.88;75.51
65824;SHT31;52585;47.566;19.056;2022-11-15T17:42:06;10.87;75.53
65824;SHT31;52585;47.566;19.056;2022-11-15T17:44:31;10.86;75.59
65824;SHT31;52585;47.566;19.056;2022-11-15T17:46:57;10.87;75.73
65824;SHT31;52585;47.566;19.056;2022-11-15T17:49:23;10.88;75.74
65824;SHT31;52585;47.566;19.056;2022-11-15T17:51:48;10.87;75.73
65824;SHT31;52585;47.566;19.056;2022-11-15T17:54:14;10.87;75.82
65824;SHT31;52585;47.566;19.056;2022-11-15T17:56:40;10.86;75.89
65824;SHT31;52585;47.566;19.056;2022-11-15T17:59:06;10.86;75.95
65824;SHT31;52585;47.566;19.056;2022-11-15T18:01:33;10.86;76.00
65824;SHT31;52585;47.566;19.056;2022-11-15T18:04:02;10.86;76.04
65824;SHT31;52585;47.566;19.056;2022-11-15T18:06:32;10.86;76.09
65824;SHT31;52585;47.566;19.056;2022-11-15T18:09:00;10.87;76.16
65824;SHT31;52585;47.566;19.056;2022-11-15T18:11:29;10.86;76.21
65824;SHT31;52585;47.566;19.056;2022-11-15T18:13:59;10.86;76.22
65824;SHT31;52585;47.566;19.056;2022-11-15T18:16:28;10.86;76.28
65824;SHT31;52585;47.566;19.056;2022-11-15T18:18:57;10.86;76.31